createdAt,value
2023-02-08T00:00:57.398Z,48.30
2023-02-08T00:03:29.322Z,49.33
2023-02-08T00:05:57.105Z,49.75
2023-02-08T00:08:24.326Z,40.72
2023-02-08T00:10:51.878Z,49.58
2023-02-08T00:13:19.519Z,44.05
2023-02-08T00:15:47.256Z,48.78
2023-02-08T00:18:15.216Z,46.40
2023-02-08T00:20:43.761Z,47.70
2023-02-08T00:23:12.268Z,47.63
2023-02-08T00:25:41.456Z,45.00
2023-02-08T00:28:12.868Z,40.10
2023-02-08T00:30:41.797Z,42.22
2023-02-08T00:33:09.711Z,42.45
2023-02-08T00:35:37.543Z,47.80
2023-02-08T00:38:05.110Z,40.38
2023-02-08T00:40:33.188Z,44.85
2023-02-08T00:43:00.504Z,44.90
2023-02-08T00:45:28.116Z,46.28
2023-02-08T00:47:57.403Z,39.25
2023-02-08T00:50:25.171Z,45.38
2023-02-08T00:52:52.382Z,41.17
2023-02-08T00:55:19.866Z,41.00
2023-02-08T00:57:47.251Z,45.45
2023-02-08T01:00:15.040Z,44.28
2023-02-08T01:02:42.593Z,43.80
2023-02-08T01:05:10.387Z,39.65
2023-02-08T01:07:38.455Z,39.95
2023-02-08T01:10:07.914Z,41.92
2023-02-08T01:12:35.545Z,44.05
2023-02-08T01:15:03.145Z,44.75
2023-02-08T01:17:30.491Z,42.97
2023-02-08T01:19:58.019Z,45.97
2023-02-08T01:22:25.196Z,42.97
2023-02-08T01:24:53.812Z,43.40
2023-02-08T01:27:21.108Z,41.95
2023-02-08T01:29:48.603Z,45.15
2023-02-08T01:32:15.842Z,41.72
2023-02-08T01:34:44.310Z,32.08
2023-02-08T01:37:11.651Z,39.72
2023-02-08T01:39:39.155Z,35.78
2023-02-08T01:42:06.538Z,49.67
2023-02-08T01:45:12.008Z,44.05
2023-02-08T01:47:39.199Z,39.63
2023-02-08T01:50:07.347Z,43.83
2023-02-08T01:52:34.878Z,47.20
2023-02-08T01:55:07.151Z,43.85
2023-02-08T01:57:34.543Z,45.87
2023-02-08T02:00:08.277Z,44.97
2023-02-08T02:02:43.155Z,41.90
2023-02-08T02:05:12.007Z,39.85
2023-02-08T02:07:39.907Z,49.92
2023-02-08T02:10:25.739Z,43.40
2023-02-08T02:12:54.296Z,42.78
2023-02-08T02:15:22.205Z,47.83
2023-02-08T02:17:49.383Z,47.40
2023-02-08T02:20:28.722Z,51.72
2023-02-08T02:23:17.189Z,47.28
2023-02-08T02:26:10.035Z,44.50
2023-02-08T02:29:07.358Z,52.30
2023-02-08T02:32:12.624Z,46.50
2023-02-08T02:35:04.743Z,50.45
2023-02-08T02:38:03.218Z,47.45
2023-02-08T02:40:47.333Z,40.13
2023-02-08T02:43:41.852Z,41.95
2023-02-08T02:46:39.002Z,39.67
2023-02-08T02:49:19.786Z,37.60
2023-02-08T02:52:08.756Z,40.17
2023-02-08T02:54:56.147Z,43.92
2023-02-08T02:57:30.321Z,41.75
2023-02-08T02:59:58.970Z,46.58
2023-02-08T03:02:28.325Z,37.47
2023-02-08T03:04:57.500Z,41.03
2023-02-08T03:07:38.677Z,45.53
2023-02-08T03:10:25.079Z,40.45
2023-02-08T03:12:58.806Z,51.40
2023-02-08T03:15:29.196Z,44.85
2023-02-08T03:18:35.594Z,40.00
2023-02-08T03:21:13.212Z,41.47
2023-02-08T03:24:03.028Z,42.13
2023-02-08T03:27:08.364Z,41.40
2023-02-08T03:29:50.074Z,44.30
2023-02-08T03:32:24.658Z,49.05
2023-02-08T03:34:57.428Z,50.50
2023-02-08T03:37:31.242Z,58.05
2023-02-08T03:40:04.236Z,54.65
2023-02-08T03:42:33.033Z,54.72
2023-02-08T03:45:10.022Z,54.95
2023-02-08T03:47:39.988Z,48.90
2023-02-08T03:50:10.289Z,46.25
2023-02-08T03:52:38.469Z,54.17
2023-02-08T03:55:10.655Z,48.80
2023-02-08T03:58:24.421Z,54.50
2023-02-08T04:01:05.322Z,48.80
2023-02-08T04:03:33.680Z,48.80
2023-02-08T04:06:01.576Z,51.28
2023-02-08T04:08:29.175Z,47.40
2023-02-08T04:10:56.506Z,54.22
2023-02-08T04:13:24.062Z,49.22
2023-02-08T04:15:51.238Z,48.70
2023-02-08T04:18:18.785Z,49.75
2023-02-08T04:20:46.032Z,51.30
2023-02-08T04:23:13.557Z,46.80
2023-02-08T04:25:40.664Z,45.97
2023-02-08T04:28:08.176Z,48.20
2023-02-08T04:30:35.623Z,46.25
2023-02-08T04:33:03.974Z,48.88
2023-02-08T04:35:31.119Z,46.38
2023-02-08T04:37:59.125Z,45.85
2023-02-08T04:40:26.341Z,42.38
2023-02-08T04:42:54.072Z,40.08
2023-02-08T04:45:21.233Z,45.63
2023-02-08T04:47:48.996Z,48.28
2023-02-08T04:50:17.090Z,51.88
2023-02-08T04:52:44.640Z,51.00
2023-02-08T04:55:12.071Z,57.67
2023-02-08T04:57:39.891Z,135.73
2023-02-08T05:00:07.807Z,67.05
2023-02-08T05:02:35.837Z,49.83
2023-02-08T05:05:03.193Z,60.88
2023-02-08T05:07:31.361Z,46.17
2023-02-08T05:09:58.676Z,56.60
2023-02-08T05:12:26.115Z,51.90
2023-02-08T05:14:53.335Z,53.95
2023-02-08T05:17:21.000Z,48.95
2023-02-08T05:19:48.171Z,52.70
2023-02-08T05:22:16.852Z,62.05
2023-02-08T05:24:44.030Z,49.30
2023-02-08T05:27:11.564Z,48.58
2023-02-08T05:29:38.789Z,51.95
2023-02-08T05:32:06.679Z,61.90
2023-02-08T05:34:34.068Z,63.45
2023-02-08T05:37:01.528Z,64.78
2023-02-08T05:39:28.862Z,57.70
2023-02-08T05:41:56.391Z,66.05
2023-02-08T05:44:23.635Z,69.18
2023-02-08T05:46:51.528Z,58.25
2023-02-08T05:49:19.053Z,50.10
2023-02-08T05:51:46.990Z,50.28
2023-02-08T05:54:14.177Z,58.78
2023-02-08T05:56:41.758Z,55.22
2023-02-08T05:59:09.842Z,49.35
2023-02-08T06:01:37.741Z,57.35
2023-02-08T06:04:04.894Z,55.45
2023-02-08T06:06:32.365Z,62.80
2023-02-08T06:08:59.509Z,58.58
2023-02-08T06:11:28.105Z,58.50
2023-02-08T06:13:55.418Z,67.53
2023-02-08T06:16:23.160Z,55.40
2023-02-08T06:18:50.559Z,58.60
2023-02-08T06:21:18.324Z,53.20
2023-02-08T06:23:45.620Z,64.35
2023-02-08T06:26:13.379Z,55.42
2023-02-08T06:28:40.920Z,56.25
2023-02-08T06:31:08.486Z,52.33
2023-02-08T06:33:35.828Z,53.78
2023-02-08T06:36:03.654Z,61.15
2023-02-08T06:38:30.905Z,63.22
2023-02-08T06:40:58.404Z,56.40
2023-02-08T06:43:26.122Z,54.45
2023-02-08T06:45:53.701Z,60.13
2023-02-08T06:48:20.962Z,55.75
2023-02-08T06:50:48.425Z,53.88
2023-02-08T06:53:15.661Z,63.67
2023-02-08T06:55:43.314Z,63.67
2023-02-08T06:58:11.359Z,60.40
2023-02-08T07:00:39.844Z,65.47
2023-02-08T07:03:07.278Z,65.95
2023-02-08T07:05:35.919Z,61.85
2023-02-08T07:08:03.698Z,76.70
2023-02-08T07:10:31.400Z,77.22
2023-02-08T07:12:58.659Z,69.78
2023-02-08T07:15:26.317Z,78.70
2023-02-08T07:17:53.732Z,77.90
2023-02-08T07:20:21.456Z,81.10
2023-02-08T07:22:48.737Z,78.47
2023-02-08T07:25:16.405Z,77.13
2023-02-08T07:27:43.703Z,72.13
2023-02-08T07:30:11.761Z,75.45
2023-02-08T07:32:42.679Z,86.00
2023-02-08T07:35:10.568Z,84.05
2023-02-08T07:37:38.257Z,82.57
2023-02-08T07:40:06.392Z,77.43
2023-02-08T07:42:33.874Z,79.32
2023-02-08T07:45:22.767Z,83.47
2023-02-08T07:47:50.136Z,74.32
2023-02-08T07:50:18.256Z,87.90
2023-02-08T07:52:47.657Z,78.57
2023-02-08T07:55:20.638Z,82.97
2023-02-08T07:57:49.267Z,83.93
2023-02-08T08:00:18.646Z,75.43
2023-02-08T08:02:46.131Z,67.22
2023-02-08T08:05:14.151Z,60.60
2023-02-08T08:07:41.480Z,59.72
2023-02-08T08:10:09.732Z,62.40
2023-02-08T08:12:36.963Z,67.90
2023-02-08T08:15:05.134Z,64.75
2023-02-08T08:17:32.352Z,59.28
2023-02-08T08:20:00.183Z,67.70
2023-02-08T08:22:27.812Z,54.42
2023-02-08T08:24:55.619Z,71.47
2023-02-08T08:27:23.223Z,62.80
2023-02-08T08:29:50.927Z,79.68
2023-02-08T08:32:18.251Z,71.15
2023-02-08T08:34:45.855Z,58.88
2023-02-08T08:37:13.128Z,62.30
2023-02-08T08:39:41.097Z,62.50
2023-02-08T08:42:08.618Z,62.60
2023-02-08T08:44:36.311Z,58.45
2023-02-08T08:47:03.515Z,57.60
2023-02-08T08:49:31.170Z,52.55
2023-02-08T08:51:58.413Z,55.38
2023-02-08T08:54:25.966Z,49.17
2023-02-08T08:56:53.651Z,54.05
2023-02-08T08:59:21.402Z,40.28
2023-02-08T09:01:48.682Z,39.67
2023-02-08T09:04:16.431Z,33.35
2023-02-08T09:06:43.897Z,32.17
2023-02-08T09:09:11.685Z,29.60
2023-02-08T09:11:39.198Z,26.92
2023-02-08T09:14:06.862Z,32.97
2023-02-08T09:16:34.506Z,35.38
2023-02-08T09:19:03.628Z,34.88
2023-02-08T09:21:31.080Z,32.15
2023-02-08T09:23:58.945Z,37.00
2023-02-08T09:26:26.803Z,32.88
2023-02-08T09:28:54.685Z,30.88
2023-02-08T09:31:27.200Z,34.28
2023-02-08T09:36:25.034Z,33.72
2023-02-08T09:39:00.469Z,42.65
2023-02-08T09:41:48.301Z,42.10
2023-02-08T09:44:44.014Z,48.47
2023-02-08T09:47:34.054Z,43.72
2023-02-08T09:50:20.176Z,49.63
2023-02-08T09:53:21.658Z,47.15
2023-02-08T09:55:55.627Z,48.70
2023-02-08T09:58:43.170Z,47.00
2023-02-08T10:01:19.701Z,51.05
2023-02-08T10:03:47.862Z,46.97
2023-02-08T10:06:17.994Z,49.72
2023-02-08T10:08:47.149Z,54.35
2023-02-08T10:11:52.248Z,48.38
2023-02-08T10:14:38.469Z,52.70
2023-02-08T10:17:29.360Z,47.25
2023-02-08T10:20:24.829Z,45.88
2023-02-08T10:23:01.602Z,54.33
2023-02-08T10:25:59.047Z,48.90
2023-02-08T10:28:39.547Z,52.22
2023-02-08T10:31:12.988Z,48.78
2023-02-08T10:33:44.705Z,49.03
2023-02-08T10:36:25.438Z,47.80
2023-02-08T10:38:55.793Z,48.03
2023-02-08T10:41:26.520Z,44.47
2023-02-08T10:44:10.530Z,40.38
2023-02-08T10:46:47.008Z,43.05
2023-02-08T10:49:26.080Z,36.17
2023-02-08T10:51:54.001Z,36.70
2023-02-08T10:54:21.751Z,38.17
2023-02-08T10:56:57.778Z,31.42
2023-02-08T10:59:32.515Z,40.00
2023-02-08T11:02:00.109Z,32.40
2023-02-08T11:04:27.926Z,22.88
2023-02-08T11:06:56.304Z,24.83
2023-02-08T11:09:33.083Z,29.55
2023-02-08T11:12:01.804Z,23.52
2023-02-08T11:14:49.233Z,27.20
2023-02-08T11:17:33.046Z,15.00
2023-02-08T11:20:01.005Z,19.33
2023-02-08T11:22:31.391Z,18.83
2023-02-08T11:25:05.644Z,15.45
2023-02-08T11:27:36.413Z,20.27
2023-02-08T11:30:13.537Z,16.33
2023-02-08T11:32:42.653Z,14.98
2023-02-08T11:35:22.155Z,18.55
2023-02-08T11:37:57.776Z,25.95
2023-02-08T11:40:30.065Z,18.20
2023-02-08T11:42:58.168Z,19.75
2023-02-08T11:45:31.341Z,21.60
2023-02-08T11:47:59.431Z,28.45
2023-02-08T11:50:45.777Z,25.70
2023-02-08T11:53:36.747Z,34.90
2023-02-08T11:56:19.221Z,31.98
2023-02-08T11:59:09.572Z,33.08
2023-02-08T12:01:39.337Z,38.72
2023-02-08T12:04:17.566Z,31.40
2023-02-08T12:06:48.406Z,29.73
2023-02-08T12:09:34.416Z,17.10
2023-02-08T12:12:27.805Z,15.65
2023-02-08T12:15:07.581Z,20.35
2023-02-08T12:17:42.234Z,12.05
2023-02-08T12:20:47.782Z,9.32
2023-02-08T12:23:42.967Z,10.00
2023-02-08T12:26:12.969Z,13.18
2023-02-08T12:28:50.449Z,13.82
2023-02-08T12:31:26.773Z,14.40
2023-02-08T12:34:16.427Z,12.68
2023-02-08T12:36:43.655Z,15.38
2023-02-08T12:39:34.982Z,15.73
2023-02-08T12:42:14.271Z,19.55
2023-02-08T12:45:10.000Z,17.60
2023-02-08T12:48:04.473Z,23.52
2023-02-08T12:50:38.638Z,22.58
2023-02-08T12:53:25.912Z,24.20
2023-02-08T12:55:55.239Z,21.80
2023-02-08T12:58:28.639Z,24.63
2023-02-08T13:01:02.470Z,19.98
2023-02-08T13:03:36.549Z,23.73
2023-02-08T13:06:08.609Z,21.02
2023-02-08T13:08:50.617Z,18.95
2023-02-08T13:11:40.032Z,15.68
2023-02-08T13:14:13.662Z,17.08
2023-02-08T13:16:47.731Z,15.30
2023-02-08T13:19:28.894Z,11.95
2023-02-08T13:21:58.570Z,14.23
2023-02-08T13:24:35.692Z,14.80
2023-02-08T13:27:05.737Z,13.27
2023-02-08T13:29:33.898Z,12.50
2023-02-08T13:32:09.380Z,8.60
2023-02-08T13:34:52.289Z,11.77
2023-02-08T13:40:21.663Z,11.20
2023-02-08T13:42:55.844Z,11.15
2023-02-08T13:45:27.475Z,12.55
2023-02-08T13:48:10.158Z,9.77
2023-02-08T13:50:57.278Z,9.00
2023-02-08T13:54:03.658Z,7.35
2023-02-08T13:56:51.029Z,12.43
2023-02-08T13:59:34.283Z,11.25
2023-02-08T14:02:17.704Z,12.75
2023-02-08T14:04:47.360Z,8.35
2023-02-08T14:07:23.325Z,11.82
2023-02-08T14:10:19.251Z,11.57
2023-02-08T14:12:57.743Z,9.60
2023-02-08T14:15:29.402Z,11.55
2023-02-08T14:17:58.614Z,12.05
2023-02-08T14:21:06.116Z,12.20
2023-02-08T14:23:38.211Z,11.10
2023-02-08T14:26:10.174Z,8.25
2023-02-08T14:28:41.118Z,27.58
2023-02-08T14:31:10.882Z,35.60
2023-02-08T14:33:40.929Z,22.88
2023-02-08T14:36:31.597Z,13.15
2023-02-08T14:39:24.962Z,11.90
2023-02-08T14:41:55.440Z,10.10
2023-02-08T14:44:42.285Z,12.27
2023-02-08T14:47:33.626Z,10.88
2023-02-08T14:50:21.073Z,10.73
2023-02-08T14:52:55.416Z,13.20
2023-02-08T14:55:27.712Z,12.32
2023-02-08T14:57:57.732Z,13.00
2023-02-08T15:00:36.788Z,14.48
2023-02-08T15:03:06.127Z,13.18
2023-02-08T15:05:46.749Z,12.05
2023-02-08T15:08:20.952Z,13.55
2023-02-08T15:10:48.243Z,13.43
2023-02-08T15:13:24.470Z,10.40
2023-02-08T15:15:56.444Z,12.13
2023-02-08T15:18:27.637Z,13.93
2023-02-08T15:21:02.662Z,15.63
2023-02-08T15:23:31.111Z,14.02
2023-02-08T15:26:01.154Z,18.88
2023-02-08T15:28:31.526Z,20.30
2023-02-08T15:31:18.990Z,19.73
2023-02-08T15:33:46.975Z,20.80
2023-02-08T15:36:22.920Z,20.88
2023-02-08T15:38:50.508Z,19.23
2023-02-08T15:41:26.902Z,18.83
2023-02-08T15:44:30.612Z,24.08
2023-02-08T15:47:00.633Z,30.48
2023-02-08T15:49:37.444Z,27.55
2023-02-08T15:52:06.077Z,30.90
2023-02-08T15:54:33.809Z,41.45
2023-02-08T15:57:22.903Z,70.38
2023-02-08T15:59:50.770Z,67.53
2023-02-08T16:02:28.008Z,43.92
2023-02-08T16:04:56.271Z,123.38
2023-02-08T16:07:47.016Z,85.35
2023-02-08T16:10:36.884Z,64.93
2023-02-08T16:13:06.953Z,58.30
2023-02-08T16:15:38.856Z,51.85
2023-02-08T16:18:06.923Z,44.03
2023-02-08T16:20:35.575Z,31.92
2023-02-08T16:23:22.279Z,55.90
2023-02-08T16:25:50.687Z,57.75
2023-02-08T16:28:28.291Z,72.90
2023-02-08T16:30:59.181Z,81.28
2023-02-08T16:33:26.757Z,68.20
2023-02-08T16:36:02.043Z,62.95
2023-02-08T16:38:32.352Z,93.85
2023-02-08T16:41:12.598Z,79.40
2023-02-08T16:43:44.189Z,113.97
2023-02-08T16:46:22.673Z,86.53
2023-02-08T16:48:53.102Z,81.13
2023-02-08T16:51:29.212Z,65.32
2023-02-08T16:54:07.795Z,59.70
2023-02-08T16:56:39.506Z,56.35
2023-02-08T16:59:06.949Z,56.70
2023-02-08T17:01:35.508Z,56.40
2023-02-08T17:04:02.873Z,48.15
2023-02-08T17:06:33.109Z,30.35
2023-02-08T17:09:01.711Z,25.23
2023-02-08T17:11:30.008Z,36.35
2023-02-08T17:13:58.660Z,45.40
2023-02-08T17:16:29.232Z,55.10
2023-02-08T17:18:59.247Z,52.95
2023-02-08T17:21:29.324Z,44.17
2023-02-08T17:23:57.099Z,45.03
2023-02-08T17:26:42.808Z,46.55
2023-02-08T17:29:12.509Z,50.97
2023-02-08T17:31:41.297Z,51.88
2023-02-08T17:34:08.466Z,49.85
2023-02-08T17:36:36.933Z,41.63
2023-02-08T17:39:05.773Z,51.60
2023-02-08T17:41:34.117Z,45.28
2023-02-08T17:44:01.966Z,52.58
2023-02-08T17:46:32.616Z,48.72
2023-02-08T17:49:01.975Z,48.05
2023-02-08T17:51:30.693Z,83.07
2023-02-08T17:53:58.176Z,58.35
2023-02-08T17:56:27.708Z,68.80
2023-02-08T17:58:55.577Z,76.80
2023-02-08T18:01:25.547Z,72.80
2023-02-08T18:03:53.736Z,63.50
2023-02-08T18:06:24.012Z,53.47
2023-02-08T18:08:52.295Z,55.42
2023-02-08T18:11:21.045Z,60.30
2023-02-08T18:13:49.522Z,56.75
2023-02-08T18:16:28.115Z,62.28
2023-02-08T18:19:01.374Z,58.50
2023-02-08T18:21:33.020Z,72.18
2023-02-08T18:24:04.972Z,58.47
2023-02-08T18:26:36.324Z,63.00
2023-02-08T18:29:04.860Z,61.80
2023-02-08T18:31:32.971Z,70.45
2023-02-08T18:34:00.702Z,63.33
2023-02-08T18:36:28.528Z,85.47
2023-02-08T18:38:56.940Z,74.05
2023-02-08T18:41:26.877Z,69.07
2023-02-08T18:43:55.524Z,71.60
2023-02-08T18:46:24.762Z,72.55
2023-02-08T18:48:54.368Z,76.70
2023-02-08T18:51:23.968Z,87.07
2023-02-08T18:53:54.065Z,112.82
2023-02-08T18:56:24.292Z,131.40
2023-02-08T18:58:53.115Z,81.43
2023-02-08T19:01:22.960Z,92.55
2023-02-08T19:03:51.989Z,85.55
2023-02-08T19:06:25.908Z,86.63
2023-02-08T19:08:55.886Z,80.03
2023-02-08T19:11:26.418Z,70.35
2023-02-08T19:13:56.939Z,76.60
2023-02-08T19:16:25.268Z,136.18
2023-02-08T19:18:56.716Z,109.82
2023-02-08T19:21:24.429Z,85.70
2023-02-08T19:23:52.857Z,87.43
2023-02-08T19:26:26.145Z,99.70
2023-02-08T19:31:24.087Z,114.57
2023-02-08T19:33:58.693Z,102.22
2023-02-08T19:36:29.832Z,101.00
2023-02-08T19:38:58.053Z,105.18
2023-02-08T19:41:33.537Z,90.53
2023-02-08T19:44:01.329Z,81.28
2023-02-08T19:46:29.375Z,97.97
2023-02-08T19:49:00.331Z,97.80
2023-02-08T19:51:30.437Z,95.47
2023-02-08T19:54:02.094Z,102.57
2023-02-08T19:56:36.918Z,83.80
2023-02-08T19:59:06.316Z,144.73
2023-02-08T20:01:35.673Z,140.05
2023-02-08T20:04:04.184Z,105.25
2023-02-08T20:06:35.168Z,119.43
2023-02-08T20:09:04.299Z,129.88
2023-02-08T20:11:35.888Z,109.32
2023-02-08T20:14:04.517Z,136.52
2023-02-08T20:16:33.396Z,105.03
2023-02-08T20:19:01.362Z,119.88
2023-02-08T20:21:29.613Z,113.13
2023-02-08T20:23:57.317Z,138.25
2023-02-08T20:26:27.128Z,128.35
2023-02-08T20:28:57.330Z,111.88
2023-02-08T20:31:28.748Z,126.80
2023-02-08T20:34:02.568Z,107.95
2023-02-08T20:36:40.967Z,127.97
2023-02-08T20:39:09.852Z,126.82
2023-02-08T20:41:38.604Z,114.18
2023-02-08T20:44:06.094Z,126.20
2023-02-08T20:46:35.845Z,117.07
2023-02-08T20:49:04.358Z,141.70
2023-02-08T20:51:32.888Z,122.68
2023-02-08T20:54:01.260Z,165.63
2023-02-08T20:56:35.195Z,167.13
2023-02-08T20:59:07.537Z,184.13
2023-02-08T21:04:03.944Z,157.38
2023-02-08T21:06:34.575Z,144.38
2023-02-08T21:09:11.731Z,145.73
2023-02-08T21:11:40.361Z,163.23
2023-02-08T21:14:08.627Z,214.85
2023-02-08T21:16:36.472Z,212.85
2023-02-08T21:19:03.837Z,162.57
2023-02-08T21:21:31.576Z,173.20
2023-02-08T21:23:59.939Z,153.45
2023-02-08T21:26:27.789Z,176.27
2023-02-08T21:28:56.485Z,168.23
2023-02-08T21:31:25.053Z,195.95
2023-02-08T21:33:53.144Z,182.43
2023-02-08T21:36:23.323Z,183.18
2023-02-08T21:38:51.791Z,176.07
2023-02-08T21:41:23.400Z,182.38
2023-02-08T21:43:53.269Z,183.55
2023-02-08T21:46:22.356Z,191.45
2023-02-08T21:49:08.503Z,175.35
2023-02-08T21:51:55.925Z,170.07
2023-02-08T21:54:31.700Z,154.57
2023-02-08T21:57:00.718Z,203.10
2023-02-08T21:59:28.951Z,168.55
2023-02-08T22:01:57.050Z,166.38
2023-02-08T22:04:25.725Z,212.05
2023-02-08T22:06:53.768Z,179.82
2023-02-08T22:09:21.721Z,186.75
2023-02-08T22:11:49.582Z,190.68
2023-02-08T22:14:16.997Z,168.20
2023-02-08T22:16:45.197Z,166.40
2023-02-08T22:19:15.919Z,147.25
2023-02-08T22:21:46.080Z,162.77
2023-02-08T22:24:13.436Z,169.48
2023-02-08T22:26:41.237Z,165.20
2023-02-08T22:29:08.443Z,169.45
2023-02-08T22:31:36.418Z,171.82
2023-02-08T22:34:03.991Z,164.07
2023-02-08T22:36:31.661Z,126.72
2023-02-08T22:38:59.960Z,160.13
2023-02-08T22:41:28.034Z,153.48
2023-02-08T22:43:55.341Z,139.43
2023-02-08T22:46:23.168Z,137.10
2023-02-08T22:48:50.489Z,129.00
2023-02-08T22:51:19.426Z,136.50
2023-02-08T22:53:47.205Z,110.90
2023-02-08T22:56:15.859Z,146.70
2023-02-08T22:58:43.192Z,144.88
2023-02-08T23:01:16.190Z,112.63
2023-02-08T23:03:43.812Z,122.93
2023-02-08T23:06:15.320Z,120.28
2023-02-08T23:08:43.105Z,117.05
2023-02-08T23:11:12.905Z,91.90
2023-02-08T23:13:40.417Z,99.18
2023-02-08T23:16:08.223Z,100.82
2023-02-08T23:18:36.649Z,107.00
2023-02-08T23:21:08.601Z,111.78
2023-02-08T23:23:36.708Z,97.03
2023-02-08T23:26:08.204Z,89.93
2023-02-08T23:28:35.588Z,108.68
2023-02-08T23:31:07.924Z,99.90
2023-02-08T23:33:35.952Z,74.53
2023-02-08T23:36:08.306Z,99.68
2023-02-08T23:38:35.663Z,97.50
2023-02-08T23:41:05.431Z,91.93
2023-02-08T23:43:33.299Z,92.55
2023-02-08T23:46:16.421Z,97.22
2023-02-08T23:48:44.180Z,91.82
2023-02-08T23:51:11.723Z,96.53
2023-02-08T23:53:38.967Z,91.75
2023-02-08T23:56:26.442Z,89.28
2023-02-08T23:58:58.563Z,95.88
